Time;durP1;ratioP1;P1;durP2;ratioP2;P2;SDS_P1;SDS_P2;PMS_P1;PMS_P2;Temp;Humidity;BMP_temperature;BMP_pressure;BME280_temperature;BME280_humidity;BME280_pressure;Samples;Min_cycle;Max_cycle;Signal;HPM_P1;HPM_P2
2023/07/04 00:00:12;;;;;;;15.82;2.90;;;16.10;81.80;;;;;;4877245;28;89541;-75
2023/07/04 00:02:39;;;;;;;17.13;2.92;;;16.10;82.20;;;;;;4876429;28;91296;-75
2023/07/04 00:05:05;;;;;;;15.20;2.55;;;16.00;82.30;;;;;;4877390;28;87719;-75
2023/07/04 00:07:34;;;;;;;13.68;2.75;;;16.00;82.60;;;;;;4877027;28;87613;-75
2023/07/04 00:10:00;;;;;;;12.30;2.65;;;16.00;82.90;;;;;;4876509;28;87737;-75
2023/07/04 00:12:26;;;;;;;14.02;2.80;;;15.90;83.00;;;;;;4880051;28;88875;-75
2023/07/04 00:14:52;;;;;;;24.02;3.50;;;15.90;83.40;;;;;;4877436;28;87996;-75
2023/07/04 00:17:18;;;;;;;21.30;3.10;;;15.90;83.60;;;;;;4877490;28;87034;-74
2023/07/04 00:19:47;;;;;;;16.02;3.13;;;15.90;84.00;;;;;;4877660;28;88180;-75
2023/07/04 00:22:13;;;;;;;15.52;3.35;;;15.90;84.20;;;;;;4877517;28;89107;-75
2023/07/04 00:24:40;;;;;;;16.58;3.53;;;15.90;84.80;;;;;;4876881;28;88685;-75
2023/07/04 00:27:06;;;;;;;26.33;3.15;;;15.80;85.00;;;;;;4877672;28;87865;-75
2023/07/04 00:29:32;;;;;;;17.45;3.58;;;15.80;85.40;;;;;;4877048;28;90601;-75
2023/07/04 00:31:58;;;;;;;13.50;3.55;;;15.80;85.60;;;;;;4877575;28;88302;-75
2023/07/04 00:34:24;;;;;;;16.15;3.15;;;15.70;86.00;;;;;;4878248;28;87650;-75
2023/07/04 00:36:50;;;;;;;18.15;3.40;;;15.70;86.00;;;;;;4877104;28;87763;-75
2023/07/04 00:39:16;;;;;;;19.80;4.47;;;15.70;86.50;;;;;;4877638;28;89360;-75
2023/07/04 00:41:42;;;;;;;17.60;2.90;;;15.70;86.70;;;;;;4877693;28;88671;-75
2023/07/04 00:44:24;;;;;;;13.90;3.13;;;15.60;87.00;;;;;;4878372;28;87244;-75
2023/07/04 00:47:12;;;;;;;14.85;3.00;;;15.60;87.40;;;;;;4878227;28;87828;-75
2023/07/04 00:49:48;;;;;;;15.38;3.55;;;15.60;87.60;;;;;;4875221;28;90094;-75
2023/07/04 00:52:24;;;;;;;16.85;3.25;;;15.50;88.10;;;;;;4877183;28;90058;-75
2023/07/04 00:54:54;;;;;;;17.65;3.13;;;15.50;88.30;;;;;;4877566;28;88177;-75
2023/07/04 00:57:23;;;;;;;17.50;3.97;;;15.50;88.70;;;;;;4878775;28;88070;-75
2023/07/04 00:59:57;;;;;;;20.42;3.78;;;15.50;89.00;;;;;;4876970;28;87964;-75
2023/07/04 01:02:31;;;;;;;18.20;3.15;;;15.40;89.40;;;;;;4878026;28;88496;-75
2023/07/04 01:04:58;;;;;;;20.80;3.75;;;15.40;89.60;;;;;;4878176;28;87624;-75
2023/07/04 01:07:48;;;;;;;18.75;3.50;;;15.30;89.90;;;;;;4876676;28;89123;-75
2023/07/04 01:10:23;;;;;;;19.60;3.45;;;15.30;89.90;;;;;;4876105;28;88468;-75
2023/07/04 01:12:49;;;;;;;20.58;3.22;;;15.30;90.10;;;;;;4877440;28;87662;-75
2023/07/04 01:15:15;;;;;;;19.98;2.92;;;15.30;90.10;;;;;;4876052;28;88442;-75
2023/07/04 01:17:42;;;;;;;18.17;3.33;;;15.20;90.30;;;;;;4876049;28;87642;-75
2023/07/04 01:20:11;;;;;;;21.00;3.88;;;15.20;90.30;;;;;;4876903;28;88337;-75
2023/07/04 01:23:07;;;;;;;18.60;3.03;;;15.20;90.40;;;;;;4875794;28;87690;-75
2023/07/04 01:25:52;;;;;;;19.50;3.70;;;15.20;90.50;;;;;;4876700;28;87223;-75
2023/07/04 01:28:20;;;;;;;17.52;3.03;;;15.20;90.60;;;;;;4875939;28;87693;-75
2023/07/04 01:30:46;;;;;;;17.40;3.88;;;15.10;90.70;;;;;;4875750;28;88771;-75
2023/07/04 01:33:13;;;;;;;22.17;3.92;;;15.10;90.90;;;;;;4876507;28;88060;-75
2023/07/04 01:35:39;;;;;;;16.38;2.72;;;15.00;90.90;;;;;;4875971;28;87798;-75
2023/07/04 01:38:06;;;;;;;24.02;3.83;;;15.00;90.90;;;;;;4859210;28;89148;-75
2023/07/04 01:40:34;;;;;;;15.82;3.00;;;15.00;90.90;;;;;;4873814;28;95198;-75
2023/07/04 01:43:00;;;;;;;20.20;3.72;;;15.00;90.90;;;;;;4876000;28;88566;-75
2023/07/04 01:45:26;;;;;;;27.58;3.58;;;15.00;91.10;;;;;;4877741;28;88089;-75
2023/07/04 01:47:53;;;;;;;18.98;3.65;;;15.00;91.20;;;;;;4875607;28;87602;-75
2023/07/04 01:50:19;;;;;;;16.58;3.50;;;14.90;91.20;;;;;;4875888;28;88794;-75
2023/07/04 01:52:45;;;;;;;17.95;3.28;;;14.90;91.40;;;;;;4876294;28;89186;-75
2023/07/04 01:55:13;;;;;;;18.60;3.40;;;14.90;91.40;;;;;;4875582;28;87859;-75
2023/07/04 01:57:39;;;;;;;20.10;3.50;;;14.90;91.40;;;;;;4875510;28;87346;-75
2023/07/04 02:00:09;;;;;;;15.65;3.25;;;14.80;91.40;;;;;;4876202;28;88831;-75
2023/07/04 02:02:39;;;;;;;19.63;4.57;;;14.80;91.50;;;;;;4875843;28;89292;-75
2023/07/04 02:05:06;;;;;;;19.13;3.75;;;14.80;91.50;;;;;;4876555;28;88586;-75
2023/07/04 02:07:31;;;;;;;25.27;4.50;;;14.80;91.70;;;;;;4875839;28;88943;-75
2023/07/04 02:09:57;;;;;;;22.98;3.70;;;14.80;91.70;;;;;;4875750;28;87827;-75
2023/07/04 02:12:23;;;;;;;21.83;3.13;;;14.80;91.80;;;;;;4876904;28;88905;-75
2023/07/04 02:14:48;;;;;;;14.93;3.45;;;14.70;91.90;;;;;;4876215;28;87470;-75
2023/07/04 02:17:14;;;;;;;24.20;4.47;;;14.70;91.90;;;;;;4876079;28;87799;-75
2023/07/04 02:19:40;;;;;;;21.58;4.07;;;14.70;92.10;;;;;;4876029;28;88597;-75
2023/07/04 02:22:06;;;;;;;16.15;3.60;;;14.70;92.10;;;;;;4875922;28;88003;-75
2023/07/04 02:24:32;;;;;;;20.05;3.55;;;14.70;92.20;;;;;;4876269;28;87602;-74
2023/07/04 02:26:57;;;;;;;19.45;3.60;;;14.70;92.20;;;;;;4875336;28;87173;-75
2023/07/04 02:29:23;;;;;;;17.45;3.80;;;14.70;92.20;;;;;;4876276;28;89963;-75
2023/07/04 02:31:49;;;;;;;17.83;3.63;;;14.60;92.30;;;;;;4878784;28;89317;-75
2023/07/04 02:34:14;;;;;;;15.95;3.92;;;14.70;92.30;;;;;;4878423;28;88417;-75
2023/07/04 02:36:40;;;;;;;22.35;3.50;;;14.60;92.40;;;;;;4880119;28;87575;-75
2023/07/04 02:39:06;;;;;;;21.73;3.90;;;14.60;92.70;;;;;;4880061;28;87650;-75
2023/07/04 02:41:32;;;;;;;27.73;4.72;;;14.50;92.60;;;;;;4878711;28;88652;-75
2023/07/04 02:43:59;;;;;;;20.70;4.40;;;14.40;92.70;;;;;;4879957;28;87991;-75
2023/07/04 02:46:24;;;;;;;21.88;4.50;;;14.40;93.00;;;;;;4862965;28;90410;-75
2023/07/04 02:48:50;;;;;;;18.77;4.97;;;14.30;93.10;;;;;;4879560;28;88751;-74
2023/07/04 02:51:16;;;;;;;19.50;4.20;;;14.30;93.20;;;;;;4880286;28;87385;-75
2023/07/04 02:53:41;;;;;;;20.00;3.63;;;14.20;93.40;;;;;;4878511;28;95917;-75
2023/07/04 02:56:07;;;;;;;16.88;3.80;;;14.20;93.50;;;;;;4879112;28;87884;-75
2023/07/04 02:58:33;;;;;;;17.33;3.92;;;14.20;93.60;;;;;;4879078;28;88591;-75
2023/07/04 03:01:01;;;;;;;20.05;4.18;;;14.20;93.60;;;;;;4879733;28;87824;-75
2023/07/04 03:03:27;;;;;;;26.20;4.47;;;14.10;93.70;;;;;;4879890;28;87431;-75
2023/07/04 03:05:53;;;;;;;20.38;4.47;;;14.10;93.80;;;;;;4879571;28;87868;-75
2023/07/04 03:08:19;;;;;;;22.67;3.83;;;14.10;94.00;;;;;;4879482;28;87569;-75
2023/07/04 03:10:48;;;;;;;22.42;4.10;;;14.00;94.00;;;;;;4878669;28;88344;-75
2023/07/04 03:13:14;;;;;;;18.48;4.20;;;14.00;94.10;;;;;;4879306;28;87846;-75
2023/07/04 03:15:40;;;;;;;24.75;4.82;;;14.00;94.20;;;;;;4879062;28;87677;-75
2023/07/04 03:18:06;;;;;;;16.35;4.30;;;14.00;94.30;;;;;;4879167;28;89695;-74
2023/07/04 03:20:31;;;;;;;17.65;4.40;;;14.00;94.30;;;;;;4878296;28;89215;-75
2023/07/04 03:22:57;;;;;;;24.95;5.22;;;14.00;94.50;;;;;;4878676;28;87587;-75
2023/07/04 03:25:22;;;;;;;20.48;4.35;;;13.90;94.50;;;;;;4877615;28;88148;-75
2023/07/04 03:27:48;;;;;;;26.65;5.70;;;13.90;94.50;;;;;;4878698;28;87885;-75
2023/07/04 03:30:15;;;;;;;20.90;4.18;;;13.90;94.70;;;;;;4878751;28;89223;-75
2023/07/04 03:32:41;;;;;;;29.40;4.25;;;13.90;94.70;;;;;;4878208;28;87633;-75
2023/07/04 03:35:08;;;;;;;15.45;3.55;;;13.90;94.70;;;;;;4878823;28;87238;-75
2023/07/04 03:37:36;;;;;;;19.75;3.92;;;13.90;94.80;;;;;;4878014;28;88376;-75
2023/07/04 03:40:08;;;;;;;17.48;3.58;;;13.90;94.80;;;;;;4876881;28;95747;-76
2023/07/04 03:42:38;;;;;;;21.63;4.70;;;13.90;94.90;;;;;;4878659;28;89063;-75
2023/07/04 03:45:05;;;;;;;16.38;4.35;;;13.80;94.80;;;;;;4879883;28;87972;-75
2023/07/04 03:47:31;;;;;;;20.20;4.38;;;13.80;94.90;;;;;;4877384;28;90950;-75
2023/07/04 03:49:57;;;;;;;19.85;4.63;;;13.80;95.00;;;;;;4878019;28;88410;-75
2023/07/04 03:52:22;;;;;;;18.45;4.22;;;13.80;95.00;;;;;;4878297;28;87675;-75
2023/07/04 03:54:48;;;;;;;20.05;3.58;;;13.80;95.10;;;;;;4878163;28;87912;-75
2023/07/04 03:57:13;;;;;;;19.42;4.38;;;13.80;95.20;;;;;;4880272;28;88193;-75
2023/07/04 03:59:39;;;;;;;25.63;4.13;;;13.80;95.50;;;;;;4878419;28;88402;-74
2023/07/04 04:02:05;;;;;;;25.65;3.95;;;13.80;95.30;;;;;;4878618;28;87856;-75
2023/07/04 04:04:36;;;;;;;23.02;4.07;;;13.80;95.30;;;;;;4877424;28;87972;-75
2023/07/04 04:07:02;;;;;;;17.63;3.58;;;13.80;95.40;;;;;;4876838;28;89918;-75
2023/07/04 04:09:27;;;;;;;18.00;3.75;;;13.80;95.40;;;;;;4878002;28;87994;-75
2023/07/04 04:11:53;;;;;;;26.45;3.95;;;13.80;95.40;;;;;;4876934;28;88277;-75
2023/07/04 04:14:18;;;;;;;16.85;4.55;;;13.80;95.40;;;;;;4877794;28;87583;-75
2023/07/04 04:16:44;;;;;;;17.90;4.00;;;13.80;95.40;;;;;;4879229;28;89036;-75
2023/07/04 04:19:10;;;;;;;19.92;4.05;;;13.90;95.40;;;;;;4882274;28;89465;-75
2023/07/04 04:21:35;;;;;;;19.38;4.13;;;13.90;95.40;;;;;;4861948;28;87482;-75
2023/07/04 04:24:01;;;;;;;22.05;4.40;;;13.90;95.40;;;;;;4879868;28;87731;-75
2023/07/04 04:26:27;;;;;;;16.92;4.53;;;13.90;95.40;;;;;;4878467;28;88361;-75
2023/07/04 04:28:55;;;;;;;21.20;3.90;;;13.90;95.40;;;;;;4880917;28;88390;-76
2023/07/04 04:31:21;;;;;;;27.67;4.60;;;13.90;95.40;;;;;;4862078;28;88306;-75
2023/07/04 04:33:47;;;;;;;18.45;3.85;;;14.00;95.30;;;;;;4861297;28;89421;-76
2023/07/04 04:36:17;;;;;;;21.48;3.88;;;14.00;95.30;;;;;;4881898;28;88266;-76
2023/07/04 04:38:43;;;;;;;25.02;4.53;;;14.00;95.30;;;;;;4880652;28;88780;-74
2023/07/04 04:41:09;;;;;;;23.38;4.15;;;14.10;95.30;;;;;;4862267;28;87430;-75
2023/07/04 04:43:35;;;;;;;17.75;4.05;;;14.10;95.30;;;;;;4879609;28;87783;-75
2023/07/04 04:46:01;;;;;;;22.80;4.03;;;14.10;95.20;;;;;;4879210;28;88270;-74
2023/07/04 04:48:29;;;;;;;27.13;4.90;;;14.10;95.10;;;;;;4878784;28;87411;-75
2023/07/04 04:50:57;;;;;;;24.70;4.55;;;14.20;95.10;;;;;;4878130;28;87808;-75
2023/07/04 04:53:24;;;;;;;21.23;3.90;;;14.20;95.00;;;;;;4860587;28;90829;-74
2023/07/04 04:55:51;;;;;;;29.33;4.68;;;14.30;95.00;;;;;;4878085;28;88829;-74
2023/07/04 04:58:18;;;;;;;20.77;3.88;;;14.30;95.00;;;;;;4877747;28;89722;-75
2023/07/04 05:00:44;;;;;;;21.60;4.50;;;14.30;94.90;;;;;;4878533;28;87805;-74
2023/07/04 05:03:13;;;;;;;22.15;4.25;;;14.40;94.70;;;;;;4877879;28;87415;-75
2023/07/04 05:05:38;;;;;;;18.85;4.38;;;14.40;94.70;;;;;;4877491;28;88352;-75
2023/07/04 05:08:04;;;;;;;25.55;4.05;;;14.40;94.60;;;;;;4859397;28;88035;-75
2023/07/04 05:10:30;;;;;;;23.50;4.45;;;14.50;94.50;;;;;;4876771;28;88217;-74
2023/07/04 05:12:57;;;;;;;23.85;4.18;;;14.50;94.30;;;;;;4876580;28;87006;-75
2023/07/04 05:15:23;;;;;;;17.60;3.40;;;14.50;94.20;;;;;;4877822;28;87693;-74
2023/07/04 05:17:49;;;;;;;15.38;4.18;;;14.50;94.40;;;;;;4877334;28;88885;-74
2023/07/04 05:20:22;;;;;;;25.25;4.13;;;14.60;94.20;;;;;;4879402;28;88549;-75
2023/07/04 05:22:48;;;;;;;19.63;4.40;;;14.60;94.20;;;;;;4878203;28;90322;-76
2023/07/04 05:25:14;;;;;;;19.88;4.72;;;14.60;94.20;;;;;;4880088;28;87634;-74
2023/07/04 05:27:39;;;;;;;24.73;5.10;;;14.70;94.00;;;;;;4876597;28;88243;-74
2023/07/04 05:30:06;;;;;;;18.48;3.72;;;14.70;93.80;;;;;;4879560;28;87763;-76
2023/07/04 05:32:31;;;;;;;22.13;4.43;;;14.70;93.80;;;;;;4878202;28;87656;-75
2023/07/04 05:34:57;;;;;;;25.77;4.95;;;14.80;93.80;;;;;;4878026;28;88148;-78
2023/07/04 05:37:23;;;;;;;21.25;3.65;;;14.80;93.70;;;;;;4864348;28;90673;-77
2023/07/04 05:39:51;;;;;;;23.85;5.10;;;14.90;93.70;;;;;;4880584;28;87642;-76
2023/07/04 05:42:16;;;;;;;26.10;4.50;;;15.00;93.70;;;;;;4863579;28;88029;-77
2023/07/04 05:44:42;;;;;;;19.15;4.00;;;15.00;93.30;;;;;;4863806;28;91713;-77
2023/07/04 05:47:08;;;;;;;18.27;4.13;;;15.10;93.50;;;;;;4881748;28;89400;-78
2023/07/04 05:49:34;;;;;;;23.10;4.22;;;15.10;93.10;;;;;;4878076;28;87159;-78
2023/07/04 05:51:59;;;;;;;20.88;4.18;;;15.20;93.10;;;;;;4877093;28;88000;-78
2023/07/04 05:54:25;;;;;;;21.15;4.75;;;15.30;93.00;;;;;;4878730;28;87839;-78
2023/07/04 05:56:53;;;;;;;21.20;3.88;;;15.30;93.10;;;;;;4876497;28;91365;-77
2023/07/04 05:59:19;;;;;;;17.60;3.80;;;15.40;92.40;;;;;;4878580;28;87240;-77
2023/07/04 06:01:46;;;;;;;21.00;3.95;;;15.40;92.50;;;;;;4877206;28;90885;-76
2023/07/04 06:04:12;;;;;;;18.35;3.30;;;15.50;92.40;;;;;;4878632;28;88451;-77
2023/07/04 06:06:43;;;;;;;19.15;3.67;;;15.50;92.10;;;;;;4881115;28;89384;-77
2023/07/04 06:09:14;;;;;;;19.40;3.85;;;15.60;92.20;;;;;;4882073;28;88044;-77
2023/07/04 06:11:45;;;;;;;28.48;4.50;;;15.70;91.80;;;;;;4881279;28;87437;-77
2023/07/04 06:14:22;;;;;;;18.02;3.70;;;15.70;92.10;;;;;;4881492;28;89283;-77
2023/07/04 06:16:48;;;;;;;20.40;4.20;;;15.80;91.60;;;;;;4881411;28;88381;-77
2023/07/04 06:19:13;;;;;;;16.75;2.70;;;15.90;91.30;;;;;;4864125;28;87594;-77
2023/07/04 06:21:39;;;;;;;17.30;2.85;;;15.90;91.40;;;;;;4881786;28;88007;-77
2023/07/04 06:24:05;;;;;;;22.38;3.25;;;16.00;91.30;;;;;;4882731;28;88681;-77
2023/07/04 06:26:32;;;;;;;19.92;4.18;;;16.10;90.90;;;;;;4878088;28;91560;-77
2023/07/04 06:28:59;;;;;;;18.02;3.75;;;16.10;90.40;;;;;;4881421;28;87442;-78
2023/07/04 06:31:25;;;;;;;22.55;4.07;;;16.20;89.40;;;;;;4880486;28;88106;-77
2023/07/04 06:33:53;;;;;;;18.77;3.78;;;16.20;89.50;;;;;;4880823;28;88455;-76
2023/07/04 06:36:19;;;;;;;18.42;4.28;;;16.30;88.90;;;;;;4881416;28;89109;-76
2023/07/04 06:38:44;;;;;;;31.77;4.35;;;16.40;88.00;;;;;;4886107;28;87599;-76
2023/07/04 06:41:13;;;;;;;36.28;4.90;;;16.50;87.80;;;;;;4883010;28;87555;-77
2023/07/04 06:43:44;;;;;;;17.13;3.00;;;16.60;87.80;;;;;;4880238;28;92273;-76
2023/07/04 06:46:12;;;;;;;18.23;3.47;;;16.70;88.40;;;;;;4881647;28;88272;-76
2023/07/04 06:48:38;;;;;;;20.00;3.42;;;16.80;86.40;;;;;;4879804;28;87725;-76
2023/07/04 06:51:16;;;;;;;11.65;2.92;;;16.90;85.00;;;;;;4882389;28;87415;-77
2023/07/04 06:53:43;;;;;;;12.80;3.22;;;17.00;84.80;;;;;;4880216;28;88411;-77
2023/07/04 06:56:14;;;;;;;13.48;2.75;;;17.10;82.80;;;;;;4880507;28;89050;-77
2023/07/04 06:58:42;;;;;;;13.30;2.80;;;17.20;83.70;;;;;;4885780;28;88028;-76
2023/07/04 07:01:10;;;;;;;11.98;2.75;;;17.20;81.40;;;;;;4879965;28;87933;-77
2023/07/04 07:03:36;;;;;;;16.92;2.67;;;17.30;81.30;;;;;;4879856;28;87492;-76
2023/07/04 07:06:07;;;;;;;15.68;2.78;;;17.30;81.60;;;;;;4879842;28;88164;-77
2023/07/04 07:08:33;;;;;;;15.65;2.80;;;17.30;80.70;;;;;;4879349;28;87797;-77
2023/07/04 07:11:02;;;;;;;12.40;2.40;;;17.40;81.10;;;;;;4880171;28;87651;-77
2023/07/04 07:13:28;;;;;;;13.93;3.15;;;17.50;80.80;;;;;;4870479;28;91660;-77
2023/07/04 07:16:14;;;;;;;15.80;2.90;;;17.50;80.90;;;;;;4879837;28;87464;-77
2023/07/04 07:18:41;;;;;;;17.33;3.25;;;17.60;80.00;;;;;;4879309;28;87932;-77
2023/07/04 07:21:08;;;;;;;12.10;2.70;;;17.70;79.20;;;;;;4881491;28;87458;-77
2023/07/04 07:23:36;;;;;;;15.70;3.13;;;17.80;79.00;;;;;;4879439;28;90183;-77
2023/07/04 07:26:04;;;;;;;12.40;2.35;;;17.90;79.00;;;;;;4872350;28;90451;-76
2023/07/04 07:28:33;;;;;;;17.30;3.25;;;18.00;79.40;;;;;;4880636;28;87906;-77
2023/07/04 07:31:10;;;;;;;19.83;3.08;;;18.10;77.40;;;;;;4869427;28;88428;-77
2023/07/04 07:33:40;;;;;;;15.48;3.58;;;18.20;75.40;;;;;;4880381;28;89866;-77
2023/07/04 07:36:10;;;;;;;12.30;2.75;;;18.20;77.60;;;;;;4880669;28;88581;-78
2023/07/04 07:38:36;;;;;;;12.85;2.60;;;18.30;78.20;;;;;;4880404;28;87523;-78
2023/07/04 07:41:02;;;;;;;12.95;3.10;;;18.40;76.60;;;;;;4881236;28;86979;-77
2023/07/04 07:43:27;;;;;;;11.65;2.40;;;18.50;76.40;;;;;;4880855;28;88619;-77
2023/07/04 07:45:53;;;;;;;15.60;2.83;;;18.50;76.20;;;;;;4880233;28;91608;-77
2023/07/04 07:48:18;;;;;;;13.07;3.13;;;18.60;77.70;;;;;;4881203;28;88331;-77
2023/07/04 07:50:44;;;;;;;12.68;2.78;;;18.70;75.50;;;;;;4880949;28;87782;-77
2023/07/04 07:53:12;;;;;;;10.30;2.50;;;18.70;75.10;;;;;;4879717;28;88741;-77
2023/07/04 07:55:39;;;;;;;11.07;2.92;;;18.80;75.90;;;;;;4878605;28;87872;-78
2023/07/04 07:58:04;;;;;;;14.02;3.03;;;18.90;74.70;;;;;;4879986;28;87936;-78
2023/07/04 08:00:30;;;;;;;14.70;3.15;;;19.10;75.20;;;;;;4879592;28;87546;-78
2023/07/04 08:02:56;;;;;;;19.73;3.67;;;19.30;74.80;;;;;;4878666;28;87612;-77
2023/07/04 08:05:21;;;;;;;11.45;2.97;;;19.30;73.60;;;;;;4863020;28;90271;-77
2023/07/04 08:07:47;;;;;;;14.10;2.85;;;19.30;72.20;;;;;;4880100;28;87616;-76
2023/07/04 08:10:12;;;;;;;19.02;3.28;;;19.30;72.20;;;;;;4880503;28;87806;-77
2023/07/04 08:12:38;;;;;;;15.10;3.08;;;19.30;71.20;;;;;;4876746;28;95074;-76
2023/07/04 08:15:04;;;;;;;19.70;3.55;;;19.30;71.50;;;;;;4880111;28;87638;-77
2023/07/04 08:17:30;;;;;;;12.88;3.03;;;19.30;71.70;;;;;;4878089;28;87682;-76
2023/07/04 08:19:56;;;;;;;16.75;3.63;;;19.40;73.70;;;;;;4879642;28;87341;-76
2023/07/04 08:22:21;;;;;;;15.63;3.35;;;19.50;72.30;;;;;;4879202;28;89907;-77
2023/07/04 08:24:47;;;;;;;14.32;3.05;;;19.60;71.30;;;;;;4877893;28;88556;-76
2023/07/04 08:27:12;;;;;;;14.82;2.53;;;19.60;71.60;;;;;;4880849;28;87695;-76
2023/07/04 08:29:38;;;;;;;13.82;3.42;;;19.60;70.00;;;;;;4879863;28;87171;-76
2023/07/04 08:32:05;;;;;;;11.27;3.03;;;19.60;70.90;;;;;;4878304;28;88534;-77
2023/07/04 08:34:31;;;;;;;16.80;3.40;;;19.70;71.40;;;;;;4877344;28;87688;-77
2023/07/04 08:36:57;;;;;;;12.63;2.40;;;19.70;68.50;;;;;;4877990;28;88901;-77
2023/07/04 08:39:23;;;;;;;16.33;3.08;;;19.70;68.80;;;;;;4877462;28;90762;-77
2023/07/04 08:42:02;;;;;;;16.52;3.70;;;19.80;69.80;;;;;;4871654;28;88765;-76
2023/07/04 08:44:41;;;;;;;17.02;3.65;;;20.00;69.50;;;;;;4867303;28;89807;-77
2023/07/04 08:47:10;;;;;;;12.93;3.38;;;20.10;68.70;;;;;;4883753;28;88360;-77
2023/07/04 08:49:52;;;;;;;19.80;3.05;;;20.30;68.50;;;;;;4868515;28;90676;-78
2023/07/04 08:52:24;;;;;;;15.18;3.70;;;20.50;68.00;;;;;;4861607;28;91721;-77
2023/07/04 08:54:51;;;;;;;24.37;2.97;;;20.60;67.70;;;;;;4873260;28;88366;-77
2023/07/04 08:57:55;;;;;;;17.98;3.08;;;20.70;68.20;;;;;;4876262;28;87702;-77
2023/07/04 09:00:39;;;;;;;13.65;2.33;;;20.70;65.20;;;;;;4877992;28;92214;-77
2023/07/04 09:03:11;;;;;;;15.57;2.63;;;20.70;64.00;;;;;;4876578;28;93718;-78
2023/07/04 09:05:54;;;;;;;15.38;3.03;;;20.80;63.30;;;;;;4879708;28;88716;-78
2023/07/04 09:08:20;;;;;;;13.07;3.17;;;20.90;63.90;;;;;;4877880;28;88666;-78
2023/07/04 09:10:49;;;;;;;8.45;2.75;;;20.90;63.30;;;;;;4877964;28;87899;-77
2023/07/04 09:13:26;;;;;;;12.82;2.90;;;20.90;64.80;;;;;;4878951;28;88744;-78
2023/07/04 09:15:55;;;;;;;10.77;2.72;;;21.00;62.40;;;;;;4879354;28;88149;-78
2023/07/04 09:18:50;;;;;;;9.93;2.92;;;20.90;63.10;;;;;;4881530;28;87863;-78
2023/07/04 09:21:19;;;;;;;12.10;2.92;;;20.90;64.80;;;;;;4862567;28;92866;-78
2023/07/04 09:23:46;;;;;;;9.18;3.20;;;20.90;64.00;;;;;;4879298;28;88238;-77
2023/07/04 09:26:17;;;;;;;11.15;3.42;;;21.00;64.40;;;;;;4878650;28;88526;-78
2023/07/04 09:28:44;;;;;;;11.98;2.92;;;21.00;64.30;;;;;;4872505;28;88720;-78
2023/07/04 09:31:19;;;;;;;10.70;3.10;;;21.10;65.20;;;;;;4876789;28;91086;-78
2023/07/04 09:33:47;;;;;;;10.07;2.88;;;21.20;64.40;;;;;;4863609;28;90117;-77
2023/07/04 09:36:16;;;;;;;14.80;2.90;;;21.30;62.60;;;;;;4882011;28;91588;-77
2023/07/04 09:38:52;;;;;;;11.85;3.13;;;21.30;62.60;;;;;;4882787;28;87677;-77
2023/07/04 09:41:19;;;;;;;15.10;3.72;;;21.30;63.00;;;;;;4877820;28;87932;-77
2023/07/04 09:43:44;;;;;;;14.60;3.08;;;21.40;65.90;;;;;;4877758;28;88666;-78
2023/07/04 09:46:30;;;;;;;10.82;3.20;;;21.40;61.60;;;;;;4877795;28;91684;-77
2023/07/04 09:49:20;;;;;;;12.93;3.17;;;21.40;62.20;;;;;;4877574;28;87720;-78
2023/07/04 09:51:56;;;;;;;9.95;3.00;;;21.20;61.90;;;;;;4863182;28;89631;-78
2023/07/04 09:54:21;;;;;;;16.25;3.88;;;21.10;63.30;;;;;;4878893;28;89476;-78
2023/07/04 09:56:47;;;;;;;12.98;3.15;;;21.20;63.80;;;;;;4879733;28;89860;-77
2023/07/04 09:59:18;;;;;;;13.68;3.30;;;21.30;64.00;;;;;;4878777;28;88759;-78
2023/07/04 10:01:47;;;;;;;10.68;3.47;;;21.40;63.40;;;;;;4875453;28;90840;-77
2023/07/04 10:04:22;;;;;;;11.30;3.17;;;21.40;63.60;;;;;;4882918;28;90748;-78
2023/07/04 10:06:50;;;;;;;14.32;3.28;;;21.40;61.60;;;;;;4887401;28;87798;-78
2023/07/04 10:09:20;;;;;;;16.52;3.60;;;21.50;62.20;;;;;;4883785;28;87492;-79
2023/07/04 10:11:50;;;;;;;17.00;3.38;;;21.60;61.70;;;;;;4883692;28;87999;-79
2023/07/04 10:14:17;;;;;;;20.77;3.85;;;21.60;62.30;;;;;;4862068;28;91294;-79
2023/07/04 10:16:50;;;;;;;12.23;3.53;;;21.60;61.70;;;;;;4864480;28;89596;-78
2023/07/04 10:19:20;;;;;;;15.05;3.97;;;21.60;63.00;;;;;;4880974;28;88713;-78
2023/07/04 10:21:52;;;;;;;13.27;3.78;;;21.70;62.20;;;;;;4878354;28;87830;-79
2023/07/04 10:24:25;;;;;;;13.60;3.80;;;21.90;61.00;;;;;;4877977;28;90074;-79
2023/07/04 10:27:03;;;;;;;17.52;4.47;;;22.00;61.50;;;;;;4878197;28;89361;-78
2023/07/04 10:29:52;;;;;;;18.40;3.50;;;22.10;60.90;;;;;;4879198;28;87734;-79
2023/07/04 10:32:18;;;;;;;10.52;3.90;;;22.10;59.10;;;;;;4862316;28;89095;-79
2023/07/04 10:34:49;;;;;;;10.70;3.38;;;22.10;58.00;;;;;;4879067;28;88901;-78
2023/07/04 10:37:34;;;;;;;10.45;3.67;;;22.20;57.50;;;;;;4876222;28;91637;-78
2023/07/04 10:40:04;;;;;;;11.18;3.42;;;22.20;57.40;;;;;;4878076;28;87079;-78
2023/07/04 10:42:39;;;;;;;16.25;4.28;;;22.20;58.40;;;;;;4878128;28;87722;-78
2023/07/04 10:45:08;;;;;;;12.07;3.85;;;22.30;58.20;;;;;;4859295;28;97859;-79
2023/07/04 10:47:37;;;;;;;10.13;3.15;;;22.40;57.90;;;;;;4877487;28;91466;-79
2023/07/04 10:50:15;;;;;;;11.30;3.53;;;22.40;57.40;;;;;;4877241;28;87825;-79
2023/07/04 10:52:44;;;;;;;12.38;3.83;;;22.50;58.90;;;;;;4880999;28;87339;-78
2023/07/04 10:55:17;;;;;;;16.02;4.43;;;22.50;57.60;;;;;;4881097;28;88702;-79
2023/07/04 10:57:56;;;;;;;12.38;3.42;;;22.40;58.50;;;;;;4880702;28;88025;-78
2023/07/04 11:00:51;;;;;;;9.98;3.35;;;22.40;59.90;;;;;;4880738;28;87188;-77
2023/07/04 11:03:23;;;;;;;9.13;3.35;;;22.60;60.20;;;;;;4879497;28;91820;-78
2023/07/04 11:05:53;;;;;;;12.95;3.97;;;22.90;59.60;;;;;;4879058;28;88449;-79
2023/07/04 11:08:22;;;;;;;12.63;3.38;;;23.00;57.50;;;;;;4880752;28;88406;-79
2023/07/04 11:10:56;;;;;;;9.90;3.30;;;23.10;57.70;;;;;;4878007;28;88571;-78
2023/07/04 11:13:24;;;;;;;11.63;3.78;;;23.20;56.80;;;;;;4879342;28;87739;-78
2023/07/04 11:16:03;;;;;;;13.50;3.80;;;23.20;56.50;;;;;;4872122;28;91805;-79
2023/07/04 11:18:32;;;;;;;9.63;3.78;;;23.20;58.20;;;;;;4882398;28;88790;-79
2023/07/04 11:21:13;;;;;;;11.05;3.63;;;23.30;58.00;;;;;;4880136;28;87585;-79
2023/07/04 11:23:51;;;;;;;13.82;4.13;;;23.50;57.10;;;;;;4880498;28;87934;-79
2023/07/04 11:26:18;;;;;;;15.73;3.85;;;23.60;56.00;;;;;;4880053;28;87637;-79
2023/07/04 11:28:49;;;;;;;8.82;3.60;;;23.60;55.10;;;;;;4879640;28;88332;-79
2023/07/04 11:31:27;;;;;;;13.43;3.63;;;23.60;54.70;;;;;;4878100;28;87645;-79
2023/07/04 11:33:52;;;;;;;7.50;3.35;;;23.70;55.50;;;;;;4880244;28;87936;-79
2023/07/04 11:36:26;;;;;;;12.32;3.80;;;23.60;54.30;;;;;;4880521;28;90053;-79
2023/07/04 11:38:57;;;;;;;12.68;4.20;;;23.50;53.50;;;;;;4880925;28;89578;-79
2023/07/04 11:41:41;;;;;;;10.18;3.55;;;23.60;53.20;;;;;;4878588;28;87444;-79
2023/07/04 11:44:29;;;;;;;9.15;4.05;;;23.60;54.00;;;;;;4878407;28;87419;-80
2023/07/04 11:47:05;;;;;;;11.43;4.28;;;23.60;52.90;;;;;;4877667;28;88215;-79
2023/07/04 11:49:33;;;;;;;9.15;3.65;;;23.60;54.40;;;;;;4879696;28;88793;-79
2023/07/04 11:52:13;;;;;;;10.38;4.70;;;23.70;56.00;;;;;;4881013;28;87435;-79
2023/07/04 11:54:38;;;;;;;10.88;3.90;;;23.80;52.00;;;;;;4878365;28;89943;-78
2023/07/04 11:57:08;;;;;;;13.10;4.18;;;23.80;52.10;;;;;;4878599;28;88438;-79
2023/07/04 11:59:42;;;;;;;8.95;4.22;;;24.00;53.50;;;;;;4876759;28;91773;-78
2023/07/04 12:02:25;;;;;;;8.68;4.00;;;24.20;52.30;;;;;;4877466;28;88590;-78
2023/07/04 12:04:51;;;;;;;7.68;3.35;;;24.30;50.10;;;;;;4874804;28;90694;-79
2023/07/04 12:07:37;;;;;;;8.77;3.70;;;24.50;50.90;;;;;;4878024;28;88028;-78
2023/07/04 12:10:09;;;;;;;9.50;3.55;;;24.70;51.00;;;;;;4876820;28;88710;-78
2023/07/04 12:12:37;;;;;;;10.50;3.83;;;24.80;51.00;;;;;;4877093;28;87997;-78
2023/07/04 12:15:09;;;;;;;10.90;3.72;;;24.80;50.80;;;;;;4861431;28;90948;-78
2023/07/04 12:17:45;;;;;;;13.93;3.80;;;24.80;50.40;;;;;;4878692;28;88291;-78
2023/07/04 12:20:17;;;;;;;7.72;3.35;;;24.80;50.40;;;;;;4878778;28;86815;-78
2023/07/04 12:22:57;;;;;;;11.45;4.20;;;24.90;50.90;;;;;;4877504;28;87767;-78
2023/07/04 12:25:28;;;;;;;9.30;4.00;;;24.90;50.70;;;;;;4879631;28;88798;-78
2023/07/04 12:27:58;;;;;;;12.30;4.90;;;24.90;50.10;;;;;;4878389;28;88865;-79
2023/07/04 12:30:24;;;;;;;10.50;4.25;;;25.00;50.90;;;;;;4879548;28;90320;-78
2023/07/04 12:32:52;;;;;;;9.77;3.40;;;25.00;50.90;;;;;;4879139;28;88002;-78
2023/07/04 12:35:20;;;;;;;8.68;3.90;;;25.00;50.80;;;;;;4877978;28;87850;-78
2023/07/04 12:37:50;;;;;;;8.80;3.90;;;25.10;50.10;;;;;;4877758;28;87583;-78
2023/07/04 12:40:19;;;;;;;7.68;3.35;;;25.00;49.60;;;;;;4877900;28;88716;-78
2023/07/04 12:42:46;;;;;;;11.00;4.03;;;24.90;49.40;;;;;;4878439;28;87790;-78
2023/07/04 12:45:24;;;;;;;9.30;3.85;;;24.90;50.90;;;;;;4879267;28;87184;-79
2023/07/04 12:47:52;;;;;;;8.65;4.25;;;25.00;50.20;;;;;;4877596;28;89855;-79